Nebraska, Indiana
Current Conditions -  °F | °C
As of 2:45 PM on Friday 31 Oct 2014 (Local Time) from KBAK Reporting Station
Overcast Overcast  
Wind Chill: 32°   Ceiling: 4300
Heat Index: 41°   Visibility: 10mi
Dew Point: 36°   Wind: 20mph
Humidity: 81%   Direction: 310°NW
Pressure: 29.99"   Gusts: NA
Location:  39.06°N, 85.46°W
Report Text: KBAK 311845Z 31017KT 10SM SCT027 BKN043 OVC080 05/02 A2999
Loading
Personal Weather Stations






























Interactive Weather Map
Tropical Storm Tracking
New forecast layout! Learn more

10-Day Weather Forecast

Advertisements
Track Severe Weather on mobile